This is the latest recevied weather packets stored in our database for station/object JK1DXQ-13. If no packets are shown the sender has not sent any weather packets the latest 10 day(s).
| Time | Temp. | Humidity | Pressure | Rain* | Wind** | Luminosity | Snow |
|---|---|---|---|---|---|---|---|
| 1777346777 | 23.33° C | 67% | 1010.1 hPa | 0 mm | - | - | - |
| 1777345576 | 23.33° C | 65% | 1010.5 hPa | 0 mm | - | - | - |
| 1777344377 | 22.78° C | 65% | 1010.9 hPa | 0 mm | - | - | - |
| 1777343176 | 22.78° C | 65% | 1011.5 hPa | 0 mm | - | - | - |
| 1777341977 | 23.89° C | 63% | 1011.7 hPa | 0 mm | - | - | - |
| 1777340777 | 22.78° C | 65% | 1011.7 hPa | 0 mm | - | - | - |
| 1777339576 | 23.33° C | 65% | 1012.3 hPa | 0 mm | - | - | - |
| 1777338377 | 22.78° C | 67% | 1012.6 hPa | 0 mm | - | - | - |
| 1777334776 | 22.22° C | 70% | 1012.5 hPa | 0 mm | - | - | - |
| 1777332377 | 21.67° C | 71% | 1012.7 hPa | 0 mm | - | - | - |
| 1777313177 | 12.22° C | 99% | 1011.5 hPa | 0 mm | - | - | - |
| 1777311976 | 12.22° C | 99% | 1011.1 hPa | 0 mm | - | - | - |
| 1777310776 | 12.22° C | 99% | 1010.9 hPa | 0 mm | - | - | - |
| 1777309577 | 12.78° C | 99% | 1010.8 hPa | 0 mm | - | - | - |
| 1777308376 | 12.22° C | 98% | 1010.9 hPa | 0 mm | - | - | - |
| 1777305977 | 12.78° C | 98% | 1011.1 hPa | 0 mm | - | - | - |
| 1777304776 | 13.33° C | 98% | 1011.4 hPa | 0 mm | - | - | - |
| 1777301176 | 13.33° C | 98% | 1011.6 hPa | 0 mm | - | - | - |
| 1777299977 | 13.89° C | 98% | 1011.8 hPa | 0 mm | - | - | - |
| 1777298776 | 13.89° C | 98% | 1011.6 hPa | 0 mm | - | - | - |
| 1777297577 | 13.89° C | 97% | 1011.3 hPa | 0 mm | - | - | - |
| 1777295176 | 13.89° C | 96% | 1011.1 hPa | 0 mm | - | - | - |
| 1777293977 | 13.89° C | 96% | 1010.9 hPa | 0 mm | - | - | - |
| 1777292776 | 13.89° C | 96% | 1010.9 hPa | 0 mm | - | - | - |
| 1777291576 | 13.89° C | 95% | 1010.5 hPa | 0 mm | - | - | - |
* Rain latest hour (hover to see other rain measurements)
** Current wind speed in m/s (hover to see current wind gust speed)